Time;durP1;ratioP1;P1;durP2;ratioP2;P2;SDS_P1;SDS_P2;PMS_P1;PMS_P2;Temp;Humidity;BMP_temperature;BMP_pressure;BME280_temperature;BME280_humidity;BME280_pressure;Samples;Min_cycle;Max_cycle;Signal;HPM_P1;HPM_P2
2021/07/07 00:00:15;;;;;;;8.82;1.90;;;12.80;99.90;;;;;;4993143;28;20044;-87
2021/07/07 00:02:41;;;;;;;13.23;2.38;;;12.80;99.90;;;;;;4972044;28;20101;-87
2021/07/07 00:05:09;;;;;;;10.48;1.70;;;12.80;99.90;;;;;;4990116;28;20046;-89
2021/07/07 00:07:35;;;;;;;15.00;2.13;;;12.80;99.90;;;;;;4989959;28;20042;-87
2021/07/07 00:10:03;;;;;;;8.32;1.80;;;12.70;99.90;;;;;;4990695;28;20031;-87
2021/07/07 00:12:29;;;;;;;6.20;1.63;;;12.70;99.90;;;;;;4962655;28;20038;-89
2021/07/07 00:14:55;;;;;;;8.65;2.10;;;12.70;99.90;;;;;;4990344;28;20039;-86
2021/07/07 00:17:21;;;;;;;5.93;1.85;;;12.70;99.90;;;;;;4946665;28;20059;-87
2021/07/07 00:19:46;;;;;;;7.90;1.95;;;12.70;99.90;;;;;;4972745;28;20450;-87
2021/07/07 00:22:14;;;;;;;8.70;1.90;;;12.60;99.90;;;;;;4989716;28;20046;-89
2021/07/07 00:24:41;;;;;;;12.38;2.78;;;12.70;99.90;;;;;;4976193;28;20129;-88
2021/07/07 00:27:07;;;;;;;9.73;1.75;;;12.60;99.90;;;;;;4936521;29;20048;-86
2021/07/07 00:29:33;;;;;;;10.70;1.90;;;12.60;99.90;;;;;;4949917;28;20145;-87
2021/07/07 00:31:59;;;;;;;11.52;2.22;;;12.60;99.90;;;;;;4942848;28;20117;-86
2021/07/07 00:34:24;;;;;;;9.18;2.05;;;12.60;99.90;;;;;;4967668;28;20129;-86
2021/07/07 00:36:50;;;;;;;11.43;1.92;;;12.60;99.90;;;;;;4959326;28;20483;-86
2021/07/07 00:39:16;;;;;;;8.15;1.70;;;12.50;99.90;;;;;;4977578;28;20042;-84
2021/07/07 00:41:42;;;;;;;11.13;4.00;;;12.60;99.90;;;;;;4954584;28;20043;-85
2021/07/07 00:44:08;;;;;;;9.25;2.10;;;12.60;99.90;;;;;;4969070;28;20046;-86
2021/07/07 00:46:35;;;;;;;5.32;2.08;;;12.50;99.90;;;;;;4970780;28;20051;-86
2021/07/07 00:49:00;;;;;;;12.50;2.00;;;12.50;99.90;;;;;;4979029;28;20116;-87
2021/07/07 00:51:26;;;;;;;11.07;2.70;;;12.40;99.90;;;;;;4954368;28;20475;-86
2021/07/07 00:53:55;;;;;;;7.28;2.03;;;12.40;99.90;;;;;;4967570;28;20402;-87
2021/07/07 00:56:22;;;;;;;10.35;2.03;;;12.40;99.90;;;;;;4969258;28;20137;-87
2021/07/07 00:58:54;;;;;;;9.93;2.10;;;12.40;99.90;;;;;;4972118;28;20046;-87
2021/07/07 01:01:20;;;;;;;7.23;2.30;;;12.30;99.90;;;;;;4922343;28;1400943;-87
2021/07/07 01:03:47;;;;;;;5.63;2.33;;;12.30;99.90;;;;;;4976882;28;20097;-86
2021/07/07 01:06:12;;;;;;;11.30;2.17;;;12.20;99.90;;;;;;4971774;28;20387;-90
2021/07/07 01:08:39;;;;;;;5.30;2.17;;;12.20;99.90;;;;;;4976493;28;20053;-88
2021/07/07 01:11:05;;;;;;;17.60;3.03;;;12.10;99.90;;;;;;4992753;28;20429;-86
2021/07/07 01:13:32;;;;;;;9.43;2.45;;;12.10;99.90;;;;;;4958512;28;20047;-85
2021/07/07 01:15:59;;;;;;;6.63;1.90;;;12.00;99.90;;;;;;4992331;28;20120;-87
2021/07/07 01:18:25;;;;;;;3.67;1.90;;;11.90;99.90;;;;;;4978098;28;20550;-86
2021/07/07 01:20:51;;;;;;;11.63;2.50;;;12.00;99.90;;;;;;4977222;28;20125;-86
2021/07/07 01:23:17;;;;;;;4.32;1.83;;;11.90;99.90;;;;;;4994131;28;20069;-89
2021/07/07 01:25:44;;;;;;;7.55;2.15;;;11.90;99.90;;;;;;4992027;28;20553;-86
2021/07/07 01:28:10;;;;;;;6.50;1.92;;;11.80;99.90;;;;;;4954516;28;20461;-86
2021/07/07 01:30:35;;;;;;;2.22;1.40;;;11.90;99.90;;;;;;4958580;28;20043;-87
2021/07/07 01:33:01;;;;;;;6.30;1.77;;;11.80;99.90;;;;;;4987786;28;20084;-87
2021/07/07 01:35:27;;;;;;;4.68;2.10;;;11.80;99.90;;;;;;4955801;28;20104;-86
2021/07/07 01:37:54;;;;;;;5.75;1.88;;;11.80;99.90;;;;;;4992133;28;20046;-85
2021/07/07 01:40:22;;;;;;;4.07;1.80;;;11.90;99.90;;;;;;4974440;28;20042;-86
2021/07/07 01:42:49;;;;;;;10.50;2.50;;;11.90;99.90;;;;;;4991972;28;20052;-86
2021/07/07 01:45:15;;;;;;;5.53;2.05;;;11.90;99.90;;;;;;4998112;28;20081;-87
2021/07/07 01:47:42;;;;;;;3.92;1.95;;;11.90;99.90;;;;;;5009136;28;20053;-85
2021/07/07 01:50:10;;;;;;;6.63;2.00;;;11.90;99.90;;;;;;4974932;28;20485;-86
2021/07/07 01:52:36;;;;;;;4.18;2.05;;;11.90;99.90;;;;;;4983815;28;20061;-84
2021/07/07 01:55:04;;;;;;;8.15;2.00;;;11.90;99.90;;;;;;4977071;28;20042;-84
2021/07/07 01:57:46;;;;;;;6.30;1.98;;;11.90;99.90;;;;;;4998747;28;20054;-86
2021/07/07 02:00:17;;;;;;;8.25;2.20;;;11.90;99.90;;;;;;4960960;28;20046;-85
2021/07/07 02:02:44;;;;;;;15.15;2.33;;;11.80;99.90;;;;;;4977292;28;20054;-87
2021/07/07 02:05:10;;;;;;;5.20;2.10;;;11.80;99.90;;;;;;4992270;28;20054;-88
2021/07/07 02:07:36;;;;;;;7.05;2.05;;;11.80;99.90;;;;;;4974423;28;20194;-90
2021/07/07 02:10:09;;;;;;;10.27;2.00;;;11.80;99.90;;;;;;4996196;28;20038;-89
2021/07/07 02:12:35;;;;;;;11.30;3.15;;;11.80;99.90;;;;;;4974481;28;20433;-86
2021/07/07 02:15:08;;;;;;;7.60;2.30;;;11.80;99.90;;;;;;4983925;28;20049;-87
2021/07/07 02:17:35;;;;;;;7.80;2.33;;;11.80;99.90;;;;;;4995034;28;20058;-85
2021/07/07 02:20:01;;;;;;;11.02;2.65;;;11.80;99.90;;;;;;4983286;28;20048;-87
2021/07/07 02:22:27;;;;;;;4.88;2.20;;;11.80;99.90;;;;;;4996453;28;20077;-88
2021/07/07 02:24:53;;;;;;;7.22;2.17;;;11.80;99.90;;;;;;4974835;28;20042;-87
2021/07/07 02:27:19;;;;;;;5.00;2.15;;;11.70;99.90;;;;;;4986927;28;20069;-92
2021/07/07 02:29:45;;;;;;;6.85;2.45;;;11.70;99.90;;;;;;4976937;28;20064;-87
2021/07/07 02:32:10;;;;;;;5.80;2.58;;;11.70;99.90;;;;;;4982465;28;20391;-87
2021/07/07 02:34:36;;;;;;;10.02;2.55;;;11.70;99.90;;;;;;4983690;28;20042;-88
2021/07/07 02:37:03;;;;;;;8.27;2.60;;;11.70;99.90;;;;;;4983518;28;20041;-88
2021/07/07 02:39:28;;;;;;;8.00;2.03;;;11.60;99.90;;;;;;4979570;28;20069;-87
2021/07/07 02:41:54;;;;;;;5.65;2.08;;;11.60;99.90;;;;;;4987454;28;20047;-87
2021/07/07 02:44:20;;;;;;;6.88;1.90;;;11.60;99.90;;;;;;4974265;28;20048;-91
2021/07/07 02:46:46;;;;;;;11.32;2.42;;;11.60;99.90;;;;;;4987821;28;20483;-88
2021/07/07 02:49:12;;;;;;;7.75;2.20;;;11.60;99.90;;;;;;4974022;28;20129;-87
2021/07/07 02:51:37;;;;;;;9.68;2.13;;;11.60;99.90;;;;;;4990249;28;20516;-88
2021/07/07 02:54:03;;;;;;;2.85;1.83;;;11.60;99.90;;;;;;4977748;28;20072;-87
2021/07/07 02:56:29;;;;;;;2.53;2.03;;;11.60;99.90;;;;;;4996671;28;20605;-87
2021/07/07 02:58:55;;;;;;;7.95;2.28;;;11.60;99.90;;;;;;4971206;28;20042;-86
2021/07/07 03:01:21;;;;;;;10.27;2.20;;;11.60;99.90;;;;;;4958509;28;20035;-91
2021/07/07 03:03:47;;;;;;;10.15;2.15;;;11.60;99.90;;;;;;4968499;28;20058;-87
2021/07/07 03:06:13;;;;;;;11.20;2.30;;;11.60;99.90;;;;;;4981764;28;20038;-87
2021/07/07 03:08:43;;;;;;;10.10;2.58;;;11.60;99.90;;;;;;4974928;28;20513;-88
2021/07/07 03:11:10;;;;;;;8.02;2.53;;;11.60;99.90;;;;;;4978089;28;20042;-87
2021/07/07 03:13:36;;;;;;;10.68;3.28;;;11.60;99.90;;;;;;4978473;28;20038;-88
2021/07/07 03:16:03;;;;;;;7.22;1.90;;;11.60;99.90;;;;;;4987861;28;20042;-90
2021/07/07 03:18:29;;;;;;;17.17;3.35;;;11.60;99.90;;;;;;4980342;28;20073;-88
2021/07/07 03:20:55;;;;;;;6.35;2.78;;;11.60;99.90;;;;;;4956247;28;20043;-87
2021/07/07 03:23:23;;;;;;;9.75;3.67;;;11.60;99.90;;;;;;4990069;28;20046;-88
2021/07/07 03:25:50;;;;;;;4.72;2.53;;;11.60;99.90;;;;;;4976357;28;20055;-88
2021/07/07 03:28:18;;;;;;;9.13;2.80;;;11.60;99.90;;;;;;4961430;28;20046;-89
2021/07/07 03:30:45;;;;;;;7.35;2.33;;;11.60;99.90;;;;;;4977282;28;20594;-89
2021/07/07 03:33:11;;;;;;;11.95;3.45;;;11.50;99.90;;;;;;4975748;28;20046;-88
2021/07/07 03:35:37;;;;;;;9.38;3.55;;;11.60;99.90;;;;;;4963173;28;20495;-88
2021/07/07 03:38:03;;;;;;;11.52;2.53;;;11.60;99.90;;;;;;4986628;28;20050;-88
2021/07/07 03:40:30;;;;;;;9.15;2.63;;;11.60;99.90;;;;;;4980469;28;20703;-89
2021/07/07 03:42:57;;;;;;;6.80;3.25;;;11.60;99.90;;;;;;4978747;28;20046;-88
2021/07/07 03:45:24;;;;;;;9.07;2.67;;;11.60;99.90;;;;;;4980237;28;20046;-91
2021/07/07 03:47:50;;;;;;;7.85;2.90;;;11.60;99.90;;;;;;4993267;28;20437;-89
2021/07/07 03:50:18;;;;;;;7.22;3.50;;;11.70;99.90;;;;;;4958141;28;20046;-89
2021/07/07 03:52:45;;;;;;;7.60;3.20;;;11.70;99.90;;;;;;4973821;28;20854;-89
2021/07/07 03:55:13;;;;;;;5.63;3.10;;;11.70;99.90;;;;;;4977378;28;20042;-89
2021/07/07 03:57:40;;;;;;;11.43;3.42;;;11.80;99.90;;;;;;4979131;28;20042;-89
2021/07/07 04:00:09;;;;;;;6.75;3.25;;;11.70;99.90;;;;;;4989307;28;20054;-88
2021/07/07 04:02:35;;;;;;;14.27;3.70;;;11.80;99.90;;;;;;4982493;28;20081;-88
2021/07/07 04:05:01;;;;;;;11.45;3.65;;;11.80;99.90;;;;;;4992799;28;20463;-88
2021/07/07 04:07:27;;;;;;;9.98;4.07;;;11.80;99.90;;;;;;4980566;28;20505;-93
2021/07/07 04:09:52;;;;;;;8.25;3.78;;;11.90;99.90;;;;;;4981760;28;20047;-88
2021/07/07 04:12:18;;;;;;;13.35;4.05;;;11.90;99.90;;;;;;4969436;28;20418;-89
2021/07/07 04:14:44;;;;;;;7.20;4.10;;;12.00;99.90;;;;;;4981359;28;20372;-85
2021/07/07 04:17:10;;;;;;;14.50;4.07;;;12.10;99.90;;;;;;4989228;28;20046;-88
2021/07/07 04:19:36;;;;;;;8.93;4.50;;;12.10;99.90;;;;;;4982857;28;20092;-89
2021/07/07 04:22:02;;;;;;;9.02;3.72;;;12.20;99.90;;;;;;4973481;28;20078;-89
2021/07/07 04:24:28;;;;;;;10.20;3.88;;;12.20;99.90;;;;;;4976380;28;20057;-91
2021/07/07 04:26:54;;;;;;;7.22;4.28;;;12.30;99.90;;;;;;4980761;28;20491;-90
2021/07/07 04:29:20;;;;;;;8.52;4.43;;;12.30;99.90;;;;;;4982083;28;20042;-89
2021/07/07 04:31:47;;;;;;;7.32;4.13;;;12.40;99.90;;;;;;4979385;28;20048;-89
2021/07/07 04:34:12;;;;;;;14.00;4.22;;;12.40;99.90;;;;;;4993374;28;20386;-88
2021/07/07 04:36:38;;;;;;;10.32;3.83;;;12.50;99.90;;;;;;4967864;28;20080;-90
2021/07/07 04:39:06;;;;;;;8.95;3.75;;;12.50;99.90;;;;;;4957163;28;20395;-88
2021/07/07 04:41:32;;;;;;;11.98;3.90;;;12.60;99.90;;;;;;4989399;28;20418;-92
2021/07/07 04:43:58;;;;;;;11.40;4.38;;;12.70;99.90;;;;;;4973383;28;20101;-89
2021/07/07 04:46:24;;;;;;;12.27;3.65;;;12.80;99.90;;;;;;4974659;28;20050;-88
2021/07/07 04:48:50;;;;;;;9.82;3.75;;;12.80;99.90;;;;;;4985691;28;20039;-88
2021/07/07 04:51:16;;;;;;;10.27;3.38;;;12.90;99.90;;;;;;4966784;28;20077;-89
2021/07/07 04:53:42;;;;;;;11.00;4.25;;;12.90;99.90;;;;;;4972829;28;20047;-88
2021/07/07 04:56:08;;;;;;;11.20;4.05;;;13.00;99.90;;;;;;4974218;28;20047;-88
2021/07/07 04:58:40;;;;;;;7.70;3.88;;;13.10;99.90;;;;;;4987524;28;20517;-89
2021/07/07 05:01:06;;;;;;;9.10;3.67;;;13.20;99.90;;;;;;4974093;28;20073;-88
2021/07/07 05:03:32;;;;;;;5.93;3.40;;;13.30;99.90;;;;;;4968605;28;20471;-92
2021/07/07 05:05:58;;;;;;;7.70;3.60;;;13.30;99.90;;;;;;4956692;28;20046;-88
2021/07/07 05:08:24;;;;;;;12.10;4.03;;;13.40;99.90;;;;;;4957435;28;20410;-88
2021/07/07 05:10:50;;;;;;;10.55;3.58;;;13.40;99.90;;;;;;4991581;28;20043;-88
2021/07/07 05:13:19;;;;;;;6.63;3.63;;;13.50;99.90;;;;;;4963559;28;20051;-88
2021/07/07 05:15:47;;;;;;;9.25;3.35;;;13.60;99.90;;;;;;4980942;28;20053;-88
2021/07/07 05:18:13;;;;;;;9.40;3.17;;;13.60;99.90;;;;;;4973151;28;20038;-88
2021/07/07 05:20:39;;;;;;;4.82;2.75;;;13.70;99.90;;;;;;4956711;28;20183;-87
2021/07/07 05:23:07;;;;;;;5.05;3.00;;;13.70;99.90;;;;;;4963522;28;20538;-87
2021/07/07 05:25:35;;;;;;;12.90;3.50;;;13.80;99.90;;;;;;4991937;28;20074;-91
2021/07/07 05:28:03;;;;;;;10.25;3.55;;;14.00;99.90;;;;;;4988500;28;20487;-90
2021/07/07 05:30:31;;;;;;;15.20;4.22;;;14.20;99.90;;;;;;4956947;28;20070;-91
2021/07/07 05:33:00;;;;;;;7.20;2.30;;;14.30;99.90;;;;;;4973589;28;20046;-88
2021/07/07 05:35:29;;;;;;;5.28;2.92;;;14.50;99.90;;;;;;4984841;28;20043;-88
2021/07/07 05:37:55;;;;;;;9.45;2.50;;;14.50;99.90;;;;;;4977651;28;20052;-88
2021/07/07 05:40:22;;;;;;;4.65;2.15;;;14.60;99.90;;;;;;4973759;28;20050;-88
2021/07/07 05:42:54;;;;;;;11.95;3.15;;;14.70;99.90;;;;;;4955071;28;20057;-88
2021/07/07 05:45:23;;;;;;;6.38;2.35;;;14.80;99.90;;;;;;4973952;28;20050;-88
2021/07/07 05:47:49;;;;;;;9.77;2.60;;;15.00;99.90;;;;;;4975282;28;20047;-89
2021/07/07 05:50:19;;;;;;;2.72;2.00;;;15.10;99.90;;;;;;4955325;28;20134;-88
2021/07/07 05:52:45;;;;;;;8.32;2.22;;;15.20;99.90;;;;;;4971398;28;20039;-91
2021/07/07 05:55:12;;;;;;;6.78;2.00;;;15.30;99.90;;;;;;4972039;28;20089;-89
2021/07/07 05:57:38;;;;;;;11.13;2.40;;;15.40;99.90;;;;;;4976385;28;20085;-90
2021/07/07 06:00:29;;;;;;;5.95;2.03;;;15.40;99.90;;;;;;4962064;28;20741;-85
2021/07/07 06:02:56;;;;;;;12.63;2.90;;;15.50;99.90;;;;;;4967856;28;20054;-87
2021/07/07 06:05:22;;;;;;;5.43;1.90;;;15.60;99.90;;;;;;4959097;28;20467;-85
2021/07/07 06:07:49;;;;;;;4.97;1.55;;;15.80;99.90;;;;;;4958309;28;20506;-86
2021/07/07 06:10:18;;;;;;;7.45;1.80;;;15.90;99.90;;;;;;4950984;28;20130;-87
2021/07/07 06:12:51;;;;;;;4.07;1.48;;;15.90;99.90;;;;;;4947018;28;20038;-86
2021/07/07 06:15:18;;;;;;;3.15;1.30;;;15.90;99.90;;;;;;4980594;28;20038;-87
2021/07/07 06:17:44;;;;;;;4.97;1.85;;;15.90;99.90;;;;;;4954737;28;20062;-86
2021/07/07 06:20:12;;;;;;;3.85;1.45;;;16.00;99.90;;;;;;4939570;28;20055;-86
2021/07/07 06:22:39;;;;;;;9.13;1.90;;;16.00;99.90;;;;;;4970493;28;20069;-89
2021/07/07 06:25:08;;;;;;;4.78;1.73;;;16.00;99.90;;;;;;4983714;28;20050;-86
2021/07/07 06:27:39;;;;;;;5.50;2.47;;;16.20;99.90;;;;;;4986631;28;20054;-86
2021/07/07 06:30:15;;;;;;;8.35;2.97;;;16.30;99.90;;;;;;4975565;28;20073;-87
2021/07/07 06:32:43;;;;;;;6.75;2.55;;;16.50;99.90;;;;;;4969970;28;20102;-89
2021/07/07 06:35:10;;;;;;;6.65;2.47;;;16.70;99.90;;;;;;4959798;28;20483;-87
2021/07/07 06:37:36;;;;;;;4.47;2.05;;;16.90;99.90;;;;;;4955686;28;20117;-86
2021/07/07 06:40:04;;;;;;;10.43;2.05;;;17.10;99.90;;;;;;4955074;28;20137;-86
2021/07/07 06:42:31;;;;;;;5.65;1.58;;;17.30;99.90;;;;;;4972340;28;20050;-86
2021/07/07 06:44:58;;;;;;;7.32;1.50;;;17.50;99.90;;;;;;4954584;28;20043;-86
2021/07/07 06:47:24;;;;;;;9.70;1.88;;;17.60;99.90;;;;;;4964858;28;20129;-86
2021/07/07 06:49:50;;;;;;;8.80;1.85;;;17.60;99.90;;;;;;4941238;28;20189;-88
2021/07/07 06:52:16;;;;;;;5.18;1.70;;;17.70;99.90;;;;;;4978156;28;20046;-87
2021/07/07 06:54:43;;;;;;;2.88;1.23;;;17.80;99.90;;;;;;4954176;28;20549;-89
2021/07/07 06:57:10;;;;;;;5.10;1.40;;;17.80;99.90;;;;;;4954404;28;20058;-87
2021/07/07 06:59:36;;;;;;;3.40;0.95;;;17.90;99.90;;;;;;4953914;28;20042;-86
2021/07/07 07:02:03;;;;;;;6.05;1.48;;;18.00;99.90;;;;;;4940600;28;20482;-88
2021/07/07 07:04:32;;;;;;;5.78;1.20;;;18.00;99.90;;;;;;4935484;28;20383;-86
2021/07/07 07:06:58;;;;;;;1.85;1.00;;;18.00;99.90;;;;;;4964482;28;20542;-87
2021/07/07 07:09:24;;;;;;;2.25;1.00;;;18.00;99.90;;;;;;4980666;28;20114;-86
2021/07/07 07:11:50;;;;;;;2.83;1.10;;;18.00;99.90;;;;;;4951154;29;20043;-86
2021/07/07 07:14:16;;;;;;;3.05;1.20;;;18.00;99.90;;;;;;4969553;28;20035;-86
2021/07/07 07:16:43;;;;;;;3.53;1.10;;;18.00;99.90;;;;;;4965539;28;20047;-88
2021/07/07 07:19:09;;;;;;;5.72;1.00;;;17.90;99.90;;;;;;4955702;28;20054;-89
2021/07/07 07:21:36;;;;;;;2.72;1.00;;;17.90;99.90;;;;;;4946213;28;20049;-87
2021/07/07 07:24:01;;;;;;;8.65;1.08;;;18.00;99.90;;;;;;4941847;28;20143;-86
2021/07/07 07:26:28;;;;;;;4.63;1.10;;;18.10;99.90;;;;;;4942119;28;20122;-86
2021/07/07 07:28:59;;;;;;;2.45;0.98;;;18.10;99.90;;;;;;4946601;29;20051;-89
2021/07/07 07:31:25;;;;;;;2.78;1.15;;;18.20;99.90;;;;;;4970100;28;20099;-88
2021/07/07 07:33:52;;;;;;;6.43;1.38;;;18.30;99.90;;;;;;4944936;28;20118;-87
2021/07/07 07:36:19;;;;;;;6.82;1.80;;;18.30;99.90;;;;;;4950760;28;20133;-87
2021/07/07 07:38:59;;;;;;;2.45;1.10;;;18.30;99.90;;;;;;4958203;28;20042;-88
2021/07/07 07:41:37;;;;;;;4.95;1.10;;;18.40;99.90;;;;;;4967919;28;20047;-89
2021/07/07 07:44:03;;;;;;;3.30;1.02;;;18.40;99.90;;;;;;4965409;28;20042;-88
2021/07/07 07:46:30;;;;;;;4.40;1.20;;;18.50;99.90;;;;;;4950463;28;20055;-89
2021/07/07 07:48:58;;;;;;;7.13;1.30;;;18.60;99.90;;;;;;4950915;28;20049;-87
2021/07/07 07:51:25;;;;;;;2.47;1.20;;;18.70;99.90;;;;;;4963462;28;20043;-88
2021/07/07 07:53:50;;;;;;;5.35;1.42;;;18.80;99.90;;;;;;4968362;28;20046;-87
2021/07/07 07:56:20;;;;;;;4.75;1.40;;;18.70;99.90;;;;;;4944499;29;20047;-87
2021/07/07 07:58:46;;;;;;;8.20;2.25;;;18.70;99.90;;;;;;4968000;28;20081;-88
2021/07/07 08:01:15;;;;;;;4.40;1.77;;;18.60;99.90;;;;;;4973913;28;20039;-87
2021/07/07 08:03:41;;;;;;;4.68;1.75;;;18.60;99.90;;;;;;4958683;28;20078;-88
2021/07/07 08:06:07;;;;;;;2.58;1.65;;;18.60;99.90;;;;;;4980590;28;20591;-87
2021/07/07 08:08:33;;;;;;;2.50;1.92;;;18.70;99.90;;;;;;4958043;28;20045;-86
2021/07/07 08:10:58;;;;;;;5.50;1.52;;;18.80;99.90;;;;;;4973233;28;20038;-87
2021/07/07 08:13:25;;;;;;;8.80;2.10;;;18.90;99.90;;;;;;4956429;28;20047;-86
2021/07/07 08:15:52;;;;;;;8.02;2.15;;;19.00;99.90;;;;;;4975350;28;20053;-88
2021/07/07 08:18:18;;;;;;;3.70;1.50;;;19.10;99.90;;;;;;4941097;28;20050;-88
2021/07/07 08:20:44;;;;;;;9.23;2.40;;;19.20;99.90;;;;;;4958073;28;20050;-87
2021/07/07 08:23:11;;;;;;;5.68;2.00;;;19.40;99.90;;;;;;4958605;28;20049;-88
2021/07/07 08:25:37;;;;;;;3.63;1.40;;;19.60;99.90;;;;;;4942106;28;20070;-86
2021/07/07 08:28:04;;;;;;;4.43;1.67;;;19.70;99.90;;;;;;4974517;28;20043;-87
2021/07/07 08:30:50;;;;;;;4.85;1.70;;;19.70;99.90;;;;;;4932674;28;20053;-90
2021/07/07 08:33:16;;;;;;;5.88;1.90;;;19.90;99.90;;;;;;4955683;28;20066;-87
2021/07/07 08:35:43;;;;;;;8.13;2.42;;;20.00;99.90;;;;;;4955157;28;20395;-87
2021/07/07 08:38:10;;;;;;;6.32;1.77;;;20.20;99.90;;;;;;4954448;28;20054;-86
2021/07/07 08:40:35;;;;;;;9.32;2.10;;;20.30;99.90;;;;;;4955254;28;20562;-87
2021/07/07 08:43:02;;;;;;;5.38;1.70;;;20.20;99.90;;;;;;4938391;28;20071;-88
2021/07/07 08:45:27;;;;;;;6.40;1.67;;;20.40;99.90;;;;;;4965804;28;20490;-87
2021/07/07 08:47:53;;;;;;;4.47;1.45;;;20.60;99.90;;;;;;4929448;29;20059;-89
2021/07/07 08:50:25;;;;;;;7.22;1.40;;;20.80;99.90;;;;;;4972115;28;20042;-86
2021/07/07 08:52:53;;;;;;;7.18;1.85;;;20.90;99.90;;;;;;4972338;28;20066;-90
2021/07/07 08:55:23;;;;;;;2.58;1.00;;;21.00;99.90;;;;;;4960361;28;20051;-87
2021/07/07 08:57:50;;;;;;;9.77;1.52;;;21.10;99.90;;;;;;4940979;28;20616;-88
2021/07/07 09:00:29;;;;;;;6.57;1.08;;;21.30;99.90;;;;;;4962452;28;20121;-87
2021/07/07 09:03:01;;;;;;;1.83;0.88;;;21.30;99.90;;;;;;4979335;28;20054;-89
2021/07/07 09:05:29;;;;;;;6.13;1.25;;;21.50;99.90;;;;;;4989765;28;20390;-86
2021/07/07 09:08:04;;;;;;;2.13;1.00;;;21.70;99.90;;;;;;4984657;28;20665;-90
2021/07/07 09:10:41;;;;;;;4.60;1.42;;;21.90;99.90;;;;;;4997048;28;20486;-86
2021/07/07 09:13:17;;;;;;;6.18;1.42;;;22.00;99.90;;;;;;4983152;28;20034;-88
2021/07/07 09:15:43;;;;;;;7.28;1.70;;;22.20;99.90;;;;;;4964491;28;20148;-87
2021/07/07 09:18:21;;;;;;;6.68;1.70;;;22.00;99.90;;;;;;4957428;28;20137;-86
2021/07/07 09:20:48;;;;;;;3.88;1.33;;;21.80;99.90;;;;;;4974511;28;20191;-87
2021/07/07 09:23:24;;;;;;;3.08;1.27;;;21.90;99.90;;;;;;4976361;28;20046;-87
2021/07/07 09:25:56;;;;;;;4.80;1.40;;;21.90;99.90;;;;;;4993421;28;20047;-87
2021/07/07 09:28:33;;;;;;;7.32;1.60;;;21.80;99.90;;;;;;4976269;28;20064;-87
2021/07/07 09:31:22;;;;;;;5.50;1.63;;;22.00;99.90;;;;;;4976331;28;20053;-87
2021/07/07 09:34:15;;;;;;;8.13;2.03;;;22.10;99.90;;;;;;4971259;28;20568;-86
2021/07/07 09:36:45;;;;;;;5.65;1.35;;;22.10;99.90;;;;;;4973285;28;20104;-88
2021/07/07 09:39:18;;;;;;;18.27;3.78;;;22.00;99.90;;;;;;4974072;28;20494;-88
2021/07/07 09:41:49;;;;;;;7.30;1.50;;;22.00;99.90;;;;;;4973998;28;20057;-86
2021/07/07 09:44:35;;;;;;;7.03;1.33;;;22.00;99.90;;;;;;4967910;28;20054;-86
2021/07/07 09:47:05;;;;;;;5.13;1.30;;;22.00;99.90;;;;;;4987485;28;20836;-86
2021/07/07 09:49:34;;;;;;;;;;;22.10;99.90;;;;;;4975112;28;20050;-86
2021/07/07 09:52:26;;;;;;;5.87;1.70;;;22.10;99.90;;;;;;4976156;28;20160;-87
2021/07/07 09:54:52;;;;;;;5.55;1.40;;;22.20;99.90;;;;;;4989619;28;20054;-85
2021/07/07 09:57:19;;;;;;;7.28;1.77;;;22.20;99.90;;;;;;4973497;28;20053;-86
2021/07/07 09:59:46;;;;;;;12.55;1.88;;;22.10;99.90;;;;;;4972832;28;20053;-86
2021/07/07 10:02:12;;;;;;;3.97;1.50;;;22.10;99.90;;;;;;4991045;28;20050;-86
2021/07/07 10:04:59;;;;;;;5.60;1.42;;;22.00;99.90;;;;;;4949888;28;20054;-88
2021/07/07 10:07:46;;;;;;;3.65;1.60;;;21.80;99.90;;;;;;4927222;28;20050;-86
2021/07/07 10:10:32;;;;;;;7.47;2.38;;;21.80;99.90;;;;;;4954751;28;20065;-86
2021/07/07 10:12:58;;;;;;;7.40;1.33;;;22.00;99.90;;;;;;4975864;28;20043;-90
2021/07/07 10:15:27;;;;;;;8.45;1.77;;;22.10;99.90;;;;;;4983791;28;20042;-85
2021/07/07 10:17:53;;;;;;;5.45;1.52;;;22.30;99.90;;;;;;4989387;28;20041;-85
2021/07/07 10:20:19;;;;;;;4.25;1.60;;;22.40;99.90;;;;;;4971050;28;20050;-85
2021/07/07 10:22:45;;;;;;;8.45;1.67;;;22.50;99.90;;;;;;4972729;28;20041;-85
2021/07/07 10:25:25;;;;;;;4.10;1.30;;;22.50;99.90;;;;;;4969523;28;20046;-87
2021/07/07 10:27:54;;;;;;;5.70;1.67;;;22.60;99.90;;;;;;4989535;28;20038;-86
2021/07/07 10:30:20;;;;;;;10.25;1.63;;;22.70;99.90;;;;;;4984674;28;20735;-88
2021/07/07 10:33:10;;;;;;;14.88;2.35;;;22.80;99.90;;;;;;4992568;28;20387;-87
2021/07/07 10:35:36;;;;;;;;;;;22.80;99.90;;;;;;4986422;28;20125;-86
2021/07/07 10:38:05;;;;;;;10.48;1.70;;;22.90;99.90;;;;;;4998193;28;19984;-88
2021/07/07 10:40:36;;;;;;;8.20;1.83;;;22.90;99.90;;;;;;4978711;28;20049;-86
2021/07/07 10:43:02;;;;;;;9.65;1.90;;;22.60;99.90;;;;;;4995916;28;20043;-88
2021/07/07 10:45:34;;;;;;;6.40;1.77;;;22.70;99.90;;;;;;4988271;28;20056;-86
2021/07/07 10:48:32;;;;;;;13.45;1.90;;;22.80;99.90;;;;;;4974010;28;20047;-90
2021/07/07 10:51:20;;;;;;;6.47;1.90;;;22.90;99.90;;;;;;4987262;28;20104;-86
2021/07/07 10:53:46;;;;;;;7.25;1.50;;;23.00;99.90;;;;;;4976580;28;20513;-87
2021/07/07 10:56:12;;;;;;;10.05;1.90;;;23.00;99.90;;;;;;4969343;28;20045;-86
2021/07/07 10:58:39;;;;;;;6.25;1.38;;;23.00;99.90;;;;;;5007722;28;20041;-87
2021/07/07 11:01:34;;;;;;;3.70;1.38;;;23.10;99.90;;;;;;4988159;28;20077;-89
2021/07/07 11:04:01;;;;;;;5.10;1.48;;;23.50;99.90;;;;;;4986568;28;20050;-87
2021/07/07 11:06:30;;;;;;;11.75;3.53;;;23.80;99.90;;;;;;4986297;28;20077;-86
2021/07/07 11:09:12;;;;;;;7.50;1.52;;;24.00;99.90;;;;;;4987822;28;20034;-86
2021/07/07 11:11:39;;;;;;;13.98;1.75;;;24.10;99.90;;;;;;4981115;28;20042;-87
2021/07/07 11:14:30;;;;;;;12.20;2.03;;;24.10;99.90;;;;;;4986033;28;20125;-88
2021/07/07 11:17:00;;;;;;;5.03;1.27;;;24.30;99.90;;;;;;4953941;28;20422;-86
2021/07/07 11:19:39;;;;;;;4.88;1.73;;;24.40;99.90;;;;;;4992157;28;20057;-86
2021/07/07 11:22:05;;;;;;;;;;;24.70;99.90;;;;;;4985917;28;20039;-88
2021/07/07 11:24:31;;;;;;;6.55;1.10;;;24.80;99.90;;;;;;5005393;28;20282;-86
2021/07/07 11:27:00;;;;;;;12.32;1.77;;;24.70;99.90;;;;;;4993002;28;20046;-86
2021/07/07 11:29:25;;;;;;;6.45;1.70;;;24.90;99.90;;;;;;4975185;28;20038;-87
2021/07/07 11:31:51;;;;;;;4.78;1.08;;;25.20;99.90;;;;;;4990285;28;20068;-87
2021/07/07 11:34:17;;;;;;;4.68;1.50;;;25.40;99.90;;;;;;4974967;28;20042;-86
2021/07/07 11:36:43;;;;;;;6.85;1.50;;;25.20;99.90;;;;;;4958397;28;20046;-86
2021/07/07 11:39:09;;;;;;;6.75;1.80;;;25.30;99.90;;;;;;4983075;28;20045;-87
2021/07/07 11:41:34;;;;;;;10.18;1.65;;;25.40;99.90;;;;;;4990740;28;20122;-87
2021/07/07 11:44:00;;;;;;;5.95;1.52;;;25.20;99.90;;;;;;4992616;28;20129;-86
2021/07/07 11:46:30;;;;;;;8.32;1.33;;;25.30;99.90;;;;;;4990387;28;20226;-86
2021/07/07 11:49:08;;;;;;;22.85;2.10;;;25.20;99.90;;;;;;4991438;28;20042;-86
2021/07/07 11:51:36;;;;;;;4.40;1.40;;;25.20;99.90;;;;;;4986400;28;20500;-87
2021/07/07 11:54:02;;;;;;;5.70;1.63;;;25.30;99.90;;;;;;4991384;28;20525;-87
2021/07/07 11:56:30;;;;;;;6.40;1.40;;;25.40;99.90;;;;;;4991500;28;20050;-86
2021/07/07 11:59:00;;;;;;;7.53;1.40;;;25.30;99.40;;;;;;4975266;28;20046;-86
2021/07/07 12:01:30;;;;;;;6.40;1.30;;;25.20;99.90;;;;;;4983685;28;20546;-88
2021/07/07 12:04:06;;;;;;;8.88;1.88;;;25.20;99.40;;;;;;4981517;28;20133;-87
2021/07/07 12:06:40;;;;;;;7.13;1.40;;;25.20;98.90;;;;;;4988680;28;20046;-86
2021/07/07 12:09:16;;;;;;;9.00;1.65;;;25.10;98.60;;;;;;4978979;28;20053;-87
2021/07/07 12:12:04;;;;;;;8.88;1.73;;;25.00;99.80;;;;;;4991643;28;20050;-86
2021/07/07 12:14:38;;;;;;;5.47;1.50;;;24.90;99.90;;;;;;4973934;28;20035;-87
2021/07/07 12:17:05;;;;;;;8.18;1.73;;;24.80;99.90;;;;;;4986721;28;20045;-86
2021/07/07 12:19:32;;;;;;;9.82;1.55;;;24.70;99.90;;;;;;4993482;28;20099;-86
2021/07/07 12:22:04;;;;;;;5.68;1.50;;;24.70;99.90;;;;;;4975893;28;20049;-86
2021/07/07 12:24:31;;;;;;;2.22;1.33;;;24.80;99.20;;;;;;5008025;28;20038;-87
2021/07/07 12:27:14;;;;;;;12.95;1.50;;;24.90;99.80;;;;;;4994025;28;20053;-88
2021/07/07 12:29:43;;;;;;;7.55;1.70;;;24.80;99.90;;;;;;4977840;28;20052;-86
2021/07/07 12:32:12;;;;;;;6.32;1.58;;;24.80;99.90;;;;;;5009833;28;20470;-89
2021/07/07 12:34:42;;;;;;;5.93;1.60;;;24.80;99.90;;;;;;5010995;28;20056;-86
2021/07/07 12:37:13;;;;;;;6.60;1.70;;;24.60;99.90;;;;;;4984664;28;20046;-86
2021/07/07 12:39:46;;;;;;;12.60;2.28;;;24.50;99.90;;;;;;5007756;28;20095;-87
2021/07/07 12:42:15;;;;;;;8.50;2.25;;;24.40;99.90;;;;;;4985578;28;20050;-89
2021/07/07 12:44:42;;;;;;;7.65;1.77;;;24.10;99.90;;;;;;4991505;28;20042;-87
2021/07/07 12:47:08;;;;;;;8.05;2.10;;;23.30;99.90;;;;;;4968834;28;20043;-87
2021/07/07 12:49:44;;;;;;;12.23;2.05;;;22.70;99.90;;;;;;4997262;28;20406;-88
2021/07/07 12:52:31;;;;;;;7.40;2.03;;;22.40;99.90;;;;;;4993744;28;20121;-89